Allen, OK

10:45 PM CDT on September 18, 2014 (GMT -0500)
Emergency Operations Center | Change Station
CLOSE
Current Station
Personal Weather Station
Location: Holdenville, OK
Elevation: 908 ft
Nearby Weather Stations
4.0 Earthquake: Medford, Oklahoma (2 hours ago)  

Elev 908 ft 35.08 °N, 96.40 °W | Updated 1 second ago

Clear
Clear
71.7 °F
Feels Like 71.7 °F
N
0.0
Wind Variable Wind from SE
Gusts 5.0 mph

Today
High -- | Low -- °F
--% Chance of Precip.
Yesterday
High -- | Low -- °F
Precip. -- in
7:10 AM 7:28 PM
Waning Crescent, 22% visible
Pressure 29.97 in
Visibility 10.0 miles
Clouds Clear
Dew Point 69 °F
Humidity 92%
Rainfall 0.15 in
Snow Depth Not available.
UV 0 out of 12
Pollen 10.20 out of 12
Air Quality Not available.
Flu Activity Not available.
METAR KADH 190335Z AUTO 00000KT 10SM CLR 20/20 A2997 RMK AO2

More Conditions Fewer Conditions

Pressure 29.97 in
Visibility 10.0 miles
Clouds Clear
Dew Point 69 °F
Humidity 92%
Rainfall 0.15 in
Snow Depth Not available.
UV 0 out of 12
Pollen 10.20 out of 12
Air Quality Not available.
Flu Activity Not available.
METAR KADH 190335Z AUTO 00000KT 10SM CLR 20/20 A2997 RMK AO2

More Conditions Fewer Conditions

10-Day Weather Forecast

Almanac

Astronomy

Sep. 18, 2014 Rise Set
Actual Time 7:10 AM CDT 7:28 PM CDT
Civil Twilight 6:45 AM CDT 7:53 PM CDT
Nautical Twilight 6:15 AM CDT 8:22 PM CDT
Astronomical Twilight 5:45 AM CDT 8:52 PM CDT
Moon 2:12 AM CDT (9/18) 4:11 PM CDT (9/18)
Length of Visible Light 13h 07m
Length of Day
12h 17m
Tomorrow will be 2m 10s shorter.
Waning Crescent, 22% of the Moon is Illuminated
Today
Waning Crescent
Sep 24
New
Oct 1
First Quarter
Oct 8
Full
Oct 15
Last Quarter

Today's Extremes

State Highs State Lows

Community

WunderPhotos

Upload Photos

1,754,553 photos uploaded!

Nearby

Snow Depth

Station Depth Elevation
No new snow has been reported.

Earthquake Activity

City Distance Mag. Time & Date
Cherokee, Oklahoma 158 miles 2.8 10:11 PM CDT
2014-09-18
Medford, Oklahoma 135 miles 4.0 8:31 PM CDT
2014-09-18
Guthrie, Oklahoma 86 miles 3.0 7:08 PM CDT
2014-09-18
Perry, Oklahoma 107 miles 3.4 2:52 PM CDT
2014-09-18
Minimum magnitude displayed is 2.5.

Coastal Water Temperatures

Place Temperature
No Stations Reporting

Nearby Weather Stations